KFLG

Flagstaff Pulliam Airport

Flagstaff, Arizona, USA
KFLG 242151Z 2422/2518 23010G20KT P6SM VCTS SCT060CB BKN080 FM250200 VRB03KT P6SM FEW080
Issued Valid From Valid To
Sep-24 @ 21:51 UTC
(an hour ago)
Sep-24 @ 22:00 UTC
(an hour ago)
Sep-25 @ 18:00 UTC
(in 19 hours)
Sep-24 @ 22:00 to Sep-25 @ 02:00
KFLG 242151Z 2422/2518 23010G20KT P6SM VCTS SCT060CB BKN080
Wind Visibility Clouds Conditions
230° at 10 knots
 Gusting to 20 knots
Greater than 6 miles
  • Scattered at 6,000' AGL
  • Broken at 8,000' AGL
  • Area Thunderstorm
From Sep-25 @ 02:00 to Sep-25 @ 18:00
FM250200 VRB03KT P6SM FEW080
Wind Visibility Clouds
Variable at 3 knots Greater than 6 miles
  • Few at 8,000' AGL
KFLG 242151Z 2422/2518 23010G20KT P6SM VCTS SCT060CB BKN080 FM250200 VRB03KT P6SM FEW080
Issued Sep-24 @ 21:51 UTC
(an hour ago)
Valid From Sep-24 @ 22:00 UTC
(an hour ago)
Valid To Sep-25 @ 18:00 UTC
(in 19 hours)
Sep-24 @ 22:00 - Sep-25 @ 02:00
Wind Visibility
230° at 10 knots
 Gusting to 20 knots
Greater than 6 miles
Clouds
  • Scattered at 6,000' AGL
  • Broken at 8,000' AGL
Conditions
  • Area Thunderstorm
From Sep-25 @ 02:00 - Sep-25 @ 18:00
Wind Visibility
Variable at 3 knots Greater than 6 miles
Clouds
  • Few at 8,000' AGL